METAR Data
IDs: Format: Raw Decoded Include TAF

Data at: 0307 UTC 20 Jan 2022

KTAD 200254Z AUTO 06008KT 10SM OVC006 M07/M09 A3029 RMK AO2 SLP294 T10671094 53016
KTAD 200223Z AUTO 06007KT 10SM BKN007 OVC010 M07/M09 A3028 RMK AO2 T10671094
KTAD 200154Z AUTO 06008KT 10SM OVC010 M07/M09 A3027 RMK AO2 SLP286 T10671094
KTAD 200054Z AUTO 09006KT 10SM OVC011 M06/M09 A3025 RMK AO2 SLP270 T10561089
KTAD 200020Z AUTO 10006KT 10SM BKN011 BKN016 OVC020 M06/M09 A3024 RMK AO2 T10561089
KTAD 192354Z AUTO 09007KT 10SM FEW011 SCT015 OVC020 M06/M09 A3023 RMK AO2 SLP262 T10561089 11033 21056 50008
KTAD 192254Z AUTO 05007KT 9SM OVC013 M05/M08 A3023 RMK AO2 SLP263 T10501083
KTAD 192154Z AUTO 06007KT 6SM HZ OVC011 M05/M08 A3022 RMK AO2 SLP256 T10501083
KTAD 192054Z AUTO 04008KT 10SM OVC010 M04/M08 A3021 RMK AO2 CIG 007V011 SLP250 T10441083 53004
KTAD 192052Z AUTO 05007KT 10SM OVC010 M04/M08 A3020 RMK AO2 CIG 007V011
KTAD 191954Z AUTO 07008KT 7SM OVC005 M04/M07 A3019 RMK AO2 SLP240 T10441072
KTAD 191854Z AUTO 06010KT 9SM OVC006 M04/M08 A3019 RMK AO2 SLP239 T10441078
KTAD 191754Z AUTO 07010KT 9SM OVC005 M03/M06 A3019 RMK AO2 SLP234 T10331061 11006 21039 51021
KTAD 191654Z AUTO 07007KT 10SM OVC004 M03/M06 A3018 RMK AO2 SLP228 T10281056
KTAD 191554Z AUTO 07006KT 10SM OVC007 M03/M06 A3015 RMK AO2 SLP218 T10281056
KTAD 191454Z AUTO 07004KT 10SM OVC009 M03/M07 A3012 RMK AO2 SLP208 T10331067 51022
KTAD 191444Z AUTO 07004KT 10SM BKN009 M04/M07 A3011 RMK AO2 T10391072
KTAD 191425Z AUTO 06005KT 10SM BKN010 BKN110 M04/M07 A3010 RMK AO2 T10391072
KTAD 191354Z AUTO 05006KT 10SM SCT090 OVC110 M03/M07 A3009 RMK AO2 SLP191 T10331072
KTAD 191254Z AUTO 05006KT 10SM OVC100 M02/M07 A3007 RMK AO2 SLP176 T10171072
KTAD 191154Z AUTO 06004KT 10SM CLR M01/M09 A3004 RMK AO2 SLP155 T10061089 10028 21011 51013
KTAD 191054Z AUTO 28003KT 10SM CLR M01/M10 A3003 RMK AO2 SLP142 T10111100
KTAD 190954Z AUTO 36004KT 10SM CLR 00/M10 A3001 RMK AO2 SLP136 T00001100
KTAD 190854Z AUTO 31003KT 10SM FEW120 M01/M11 A3000 RMK AO2 SLP127 T10061106 51013
KTAD 190754Z AUTO 32006KT 10SM CLR 01/M11 A2999 RMK AO2 SLP123 T00111106
KTAD 190654Z AUTO 33005KT 10SM FEW120 02/M11 A2998 RMK AO2 SLP118 T00171106 401671033
KTAD 190554Z AUTO 01010KT 10SM CLR 03/M11 A2995 RMK AO2 SLP113 T00281106 10106 20028 53027
KTAD 190454Z AUTO 03011KT 10SM CLR 03/M12 A2992 RMK AO2 SLP110 T00331117
KTAD 190354Z AUTO 32006KT 10SM CLR 04/M14 A2989 RMK AO2 SLP100 T00391144
KTAD 190254Z AUTO 29007KT 10SM CLR 03/M14 A2986 RMK AO2 SLP108 T00281144 51011
KTAD 190154Z AUTO 32007KT 10SM CLR 06/M16 A2985 RMK AO2 SLP101 T00611156
KTAD 190054Z AUTO 35008KT 10SM CLR 08/M14 A2984 RMK AO2 SLP098 T00781139
KTAD 182354Z AUTO 34007KT 10SM CLR 11/M17 A2982 RMK AO2 SLP076 T01111172 10167 20111 53008
KTAD 182254Z AUTO 34010KT 10SM CLR 15/M18 A2979 RMK AO2 SLP058 T01501178
KTAD 182154Z AUTO 34010G17KT 10SM CLR 16/M18 A2978 RMK AO2 SLP052 T01561178
KTAD 182054Z AUTO 36010G18KT 10SM CLR 17/M17 A2979 RMK AO2 SLP051 T01671172 56019
KTAD 181954Z AUTO 33013G22KT 10SM CLR 17/M17 A2980 RMK AO2 SLP052 T01671172
KTAD 181854Z AUTO 30005KT 10SM CLR 16/M16 A2982 RMK AO2 SLP061 T01561156
KTAD 181754Z AUTO 29003KT 10SM CLR 12/M11 A2985 RMK AO2 SLP081 T01221106 10122 21033 50000
KTAD 181654Z AUTO 28009KT 10SM CLR 08/M11 A2987 RMK AO2 SLP093 T00781111
KTAD 181554Z AUTO 29008KT 10SM CLR 07/M12 A2986 RMK AO2 SLP097 T00721117